createdAt,value
2019-04-20T00:01:03.273Z,4.00
2019-04-20T00:03:39.846Z,4.02
2019-04-20T00:06:09.188Z,4.03
2019-04-20T00:08:42.717Z,4.04
2019-04-20T00:11:21.888Z,3.94
2019-04-20T00:13:57.745Z,3.91
2019-04-20T00:16:21.170Z,3.84
2019-04-20T00:18:56.575Z,3.79
2019-04-20T00:21:46.919Z,3.82
2019-04-20T00:24:21.019Z,3.79
2019-04-20T00:29:40.705Z,3.70
2019-04-20T00:32:06.335Z,3.61
2019-04-20T00:34:32.002Z,3.64
2019-04-20T00:37:00.613Z,3.58
2019-04-20T00:39:32.271Z,3.56
2019-04-20T00:42:10.722Z,3.52
2019-04-20T00:44:44.085Z,3.48
2019-04-20T00:47:30.711Z,3.49
2019-04-20T00:50:04.066Z,3.52
2019-04-20T00:52:32.834Z,3.48
2019-04-20T00:54:55.914Z,3.46
2019-04-20T00:57:37.965Z,3.56
2019-04-20T01:00:17.613Z,3.59
2019-04-20T01:02:45.435Z,3.63
2019-04-20T01:05:27.920Z,3.61
2019-04-20T01:08:00.171Z,3.58
2019-04-20T01:10:35.387Z,3.63
2019-04-20T01:13:11.044Z,3.62
2019-04-20T01:15:42.935Z,3.54
2019-04-20T01:18:10.777Z,3.50
2019-04-20T01:20:43.029Z,3.51
2019-04-20T01:23:19.084Z,3.53
2019-04-20T01:25:55.851Z,3.55
2019-04-20T01:28:37.557Z,3.50
2019-04-20T01:31:06.728Z,3.35
2019-04-20T01:33:40.057Z,3.27
2019-04-20T01:36:19.469Z,3.29
2019-04-20T01:38:47.325Z,3.24
2019-04-20T01:41:07.890Z,3.22
2019-04-20T01:43:39.579Z,3.20
2019-04-20T01:46:15.750Z,3.19
2019-04-20T01:48:44.734Z,2.98
2019-04-20T01:51:21.170Z,2.95
2019-04-20T01:54:06.331Z,2.93
2019-04-20T01:56:42.651Z,2.93
2019-04-20T01:59:23.076Z,2.93
2019-04-20T02:02:04.654Z,2.98
2019-04-20T02:04:40.432Z,2.85
2019-04-20T02:07:10.348Z,2.81
2019-04-20T02:09:49.578Z,2.82
2019-04-20T02:12:22.350Z,2.82
2019-04-20T02:14:54.046Z,2.78
2019-04-20T02:17:33.589Z,2.79
2019-04-20T02:20:15.590Z,2.66
2019-04-20T02:22:46.592Z,2.63
2019-04-20T02:25:03.521Z,2.62
2019-04-20T02:27:44.667Z,2.57
2019-04-20T02:30:40.355Z,2.65
2019-04-20T02:33:31.505Z,2.63
2019-04-20T02:36:11.087Z,2.62
2019-04-20T02:41:51.674Z,2.62
2019-04-20T02:44:16.072Z,2.57
2019-04-20T02:47:07.596Z,2.62
2019-04-20T02:49:29.966Z,2.62
2019-04-20T02:51:52.426Z,2.62
2019-04-20T02:54:21.950Z,2.51
2019-04-20T02:57:12.140Z,2.58
2019-04-20T03:01:51.741Z,2.78
2019-04-20T03:04:16.266Z,2.74
2019-04-20T03:06:55.002Z,2.74
2019-04-20T03:09:36.822Z,2.77
2019-04-20T03:12:08.220Z,3.01
2019-04-20T03:14:36.218Z,3.08
2019-04-20T03:17:15.268Z,3.15
2019-04-20T03:19:41.160Z,3.15
2019-04-20T03:22:21.396Z,3.47
2019-04-20T03:24:53.948Z,3.39
2019-04-20T03:27:25.128Z,3.70
2019-04-20T03:30:05.871Z,3.50
2019-04-20T03:35:20.042Z,3.75
2019-04-20T03:37:48.713Z,3.99
2019-04-20T03:40:19.125Z,4.21
2019-04-20T03:42:35.006Z,4.20
2019-04-20T03:45:12.483Z,3.81
2019-04-20T03:47:52.939Z,3.72
2019-04-20T03:50:38.538Z,3.74
2019-04-20T03:53:12.900Z,3.75
2019-04-20T03:55:51.629Z,3.82
2019-04-20T03:58:46.042Z,4.03
2019-04-20T04:01:55.564Z,4.14
2019-04-20T04:04:16.915Z,4.26
2019-04-20T04:06:37.345Z,4.29
2019-04-20T04:09:15.266Z,4.38
2019-04-20T04:11:58.523Z,4.43
2019-04-20T04:14:17.813Z,4.68
2019-04-20T04:16:54.342Z,4.59
2019-04-20T04:19:28.448Z,4.57
2019-04-20T04:22:08.656Z,4.70
2019-04-20T04:24:39.442Z,4.75
2019-04-20T04:27:22.534Z,4.83
2019-04-20T04:29:56.998Z,5.02
2019-04-20T04:32:47.972Z,4.97
2019-04-20T04:34:58.079Z,4.98
2019-04-20T04:37:33.824Z,5.08
2019-04-20T04:40:18.260Z,5.18
2019-04-20T04:42:42.671Z,5.33
2019-04-20T04:45:01.583Z,5.44
2019-04-20T04:47:28.458Z,5.53
2019-04-20T04:50:09.570Z,5.69
2019-04-20T04:52:47.812Z,5.69
2019-04-20T04:55:20.692Z,5.85
2019-04-20T04:57:41.526Z,6.00
2019-04-20T05:00:19.933Z,6.14
2019-04-20T05:02:53.898Z,6.19
2019-04-20T05:05:41.389Z,6.27
2019-04-20T05:08:07.241Z,6.68
2019-04-20T05:10:29.018Z,6.61
2019-04-20T05:13:00.880Z,6.67
2019-04-20T05:15:48.408Z,6.64
2019-04-20T05:18:34.436Z,6.95
2019-04-20T05:20:58.698Z,6.83
2019-04-20T05:23:28.074Z,7.05
2019-04-20T05:26:14.182Z,7.17
2019-04-20T05:28:37.146Z,7.30
2019-04-20T05:31:02.989Z,7.44
2019-04-20T05:33:57.092Z,7.67
2019-04-20T05:36:24.753Z,8.25
2019-04-20T05:39:02.238Z,8.38
2019-04-20T05:41:32.890Z,7.95
2019-04-20T05:44:05.067Z,8.21
2019-04-20T05:46:41.182Z,8.10
2019-04-20T05:49:18.764Z,8.32
2019-04-20T05:51:48.670Z,8.44
2019-04-20T05:54:19.365Z,8.36
2019-04-20T05:56:58.886Z,8.63
2019-04-20T05:59:27.082Z,8.35
2019-04-20T06:02:07.604Z,8.85
2019-04-20T06:04:46.381Z,8.98
2019-04-20T06:07:11.301Z,9.08
2019-04-20T06:09:52.422Z,8.51
2019-04-20T06:15:02.823Z,8.65
2019-04-20T06:17:52.753Z,9.07
2019-04-20T06:20:38.734Z,8.97
2019-04-20T06:23:34.621Z,9.00
2019-04-20T06:26:13.421Z,8.95
2019-04-20T06:28:30.037Z,9.05
2019-04-20T06:31:08.866Z,8.87
2019-04-20T06:34:30.402Z,9.32
2019-04-20T06:39:32.598Z,9.25
2019-04-20T06:44:36.968Z,9.16
2019-04-20T06:47:10.339Z,9.16
2019-04-20T06:50:00.430Z,9.29
2019-04-20T06:55:04.065Z,9.39
2019-04-20T06:57:40.564Z,9.43
2019-04-20T07:00:15.695Z,9.27
2019-04-20T07:02:59.041Z,9.30
2019-04-20T07:05:23.640Z,9.30
2019-04-20T07:08:00.423Z,9.56
2019-04-20T07:10:31.355Z,9.36
2019-04-20T07:12:56.553Z,9.49
2019-04-20T07:15:28.869Z,9.49
2019-04-20T07:18:09.236Z,9.93
2019-04-20T07:21:12.802Z,9.73
2019-04-20T07:23:48.178Z,9.64
2019-04-20T07:26:15.337Z,9.58
2019-04-20T07:28:41.337Z,9.47
2019-04-20T07:31:11.403Z,10.02
2019-04-20T07:33:51.198Z,10.17
2019-04-20T07:36:24.475Z,9.88
2019-04-20T07:38:55.266Z,9.87
2019-04-20T07:41:35.508Z,9.93
2019-04-20T07:44:03.342Z,10.05
2019-04-20T07:46:51.083Z,10.23
2019-04-20T07:49:07.626Z,10.10
2019-04-20T07:51:25.981Z,9.92
2019-04-20T07:54:17.667Z,10.27
2019-04-20T07:56:47.775Z,10.12
2019-04-20T07:59:13.934Z,10.24
2019-04-20T08:02:01.462Z,10.14
2019-04-20T08:04:30.044Z,10.26
2019-04-20T08:06:51.864Z,10.33
2019-04-20T08:09:26.153Z,10.30
2019-04-20T08:12:26.874Z,10.56
2019-04-20T08:14:56.876Z,10.58
2019-04-20T08:17:30.402Z,10.70
2019-04-20T08:19:59.559Z,10.44
2019-04-20T08:22:33.950Z,10.54
2019-04-20T08:24:59.297Z,10.68
2019-04-20T08:27:21.249Z,10.54
2019-04-20T08:30:20.649Z,10.66
2019-04-20T08:33:00.411Z,10.45
2019-04-20T08:35:46.367Z,10.58
2019-04-20T08:38:38.283Z,10.58
2019-04-20T08:40:47.866Z,10.72
2019-04-20T08:43:38.176Z,11.02
2019-04-20T08:45:52.430Z,11.25
2019-04-20T08:48:28.749Z,11.05
2019-04-20T08:50:57.778Z,10.99
2019-04-20T08:53:36.982Z,10.87
2019-04-20T08:56:02.280Z,10.88
2019-04-20T08:58:22.643Z,11.15
2019-04-20T09:00:58.693Z,11.30
2019-04-20T09:03:32.571Z,11.03
2019-04-20T09:06:08.602Z,10.99
2019-04-20T09:08:46.521Z,11.18
2019-04-20T09:11:24.261Z,11.29
2019-04-20T09:13:47.701Z,11.03
2019-04-20T09:16:19.952Z,11.29
2019-04-20T09:18:57.485Z,11.39
2019-04-20T09:21:34.183Z,11.43
2019-04-20T09:24:22.859Z,11.19
2019-04-20T09:26:47.986Z,11.43
2019-04-20T09:29:18.488Z,11.75
2019-04-20T09:31:52.087Z,11.20
2019-04-20T09:34:37.111Z,11.28
2019-04-20T09:37:21.457Z,11.17
2019-04-20T09:39:51.406Z,11.29
2019-04-20T09:42:09.496Z,11.44
2019-04-20T09:44:46.198Z,11.78
2019-04-20T09:47:14.345Z,11.45
2019-04-20T09:49:58.997Z,11.22
2019-04-20T09:52:31.268Z,11.59
2019-04-20T09:55:07.846Z,11.46
2019-04-20T09:57:46.723Z,11.49
2019-04-20T10:00:16.844Z,11.44
2019-04-20T10:02:36.333Z,11.70
2019-04-20T10:05:09.403Z,11.59
2019-04-20T10:07:42.232Z,11.25
2019-04-20T10:10:24.592Z,11.62
2019-04-20T10:12:48.539Z,11.74
2019-04-20T10:15:23.483Z,11.53
2019-04-20T10:17:53.950Z,11.34
2019-04-20T10:20:30.974Z,11.45
2019-04-20T10:22:58.799Z,11.95
2019-04-20T10:25:30.915Z,11.82
2019-04-20T10:28:03.371Z,12.39
2019-04-20T10:30:36.611Z,12.32
2019-04-20T10:33:09.880Z,12.18
2019-04-20T10:35:41.788Z,12.03
2019-04-20T10:38:15.709Z,12.23
2019-04-20T10:40:57.272Z,11.96
2019-04-20T10:43:21.965Z,11.95
2019-04-20T10:45:54.773Z,12.04
2019-04-20T10:48:26.944Z,12.21
2019-04-20T10:50:59.007Z,12.18
2019-04-20T10:53:32.193Z,11.98
2019-04-20T10:56:05.236Z,11.87
2019-04-20T10:58:37.789Z,11.80
2019-04-20T11:01:09.908Z,12.00
2019-04-20T11:03:42.765Z,11.95
2019-04-20T11:06:14.570Z,12.15
2019-04-20T11:08:46.684Z,12.14
2019-04-20T11:11:25.190Z,12.46
2019-04-20T11:13:51.479Z,12.33
2019-04-20T11:16:24.270Z,12.21
2019-04-20T11:18:56.001Z,12.42
2019-04-20T11:21:28.284Z,12.12
2019-04-20T11:24:00.389Z,12.48
2019-04-20T11:26:35.384Z,12.26
2019-04-20T11:29:06.393Z,12.23
2019-04-20T11:31:43.196Z,12.40
2019-04-20T11:34:14.923Z,12.68
2019-04-20T11:36:45.436Z,12.93
2019-04-20T11:39:17.121Z,12.34
2019-04-20T11:41:49.753Z,12.19
2019-04-20T11:44:21.252Z,12.58
2019-04-20T11:46:54.463Z,12.54
2019-04-20T11:49:26.094Z,12.69
2019-04-20T11:51:59.383Z,12.66
2019-04-20T11:54:32.383Z,12.48
2019-04-20T11:57:04.040Z,12.44
2019-04-20T11:59:37.120Z,12.50
2019-04-20T12:02:15.831Z,12.70
2019-04-20T12:05:05.858Z,12.89
2019-04-20T12:07:24.913Z,12.66
2019-04-20T12:10:05.673Z,12.60
2019-04-20T12:12:40.055Z,12.85
2019-04-20T12:15:06.601Z,12.64
2019-04-20T12:17:38.048Z,12.99
2019-04-20T12:20:10.944Z,12.74
2019-04-20T12:22:42.382Z,12.55
2019-04-20T12:25:14.227Z,12.46
2019-04-20T12:27:48.834Z,12.52
2019-04-20T12:30:19.630Z,12.61
2019-04-20T12:32:56.840Z,12.70
2019-04-20T12:35:26.499Z,12.68
2019-04-20T12:37:58.959Z,12.78
2019-04-20T12:40:30.617Z,12.84
2019-04-20T12:43:02.178Z,12.86
2019-04-20T12:45:35.669Z,12.97
2019-04-20T12:48:08.034Z,13.04
2019-04-20T12:50:39.703Z,13.13
2019-04-20T12:53:12.836Z,12.82
2019-04-20T12:55:44.663Z,12.99
2019-04-20T12:58:16.734Z,12.68
2019-04-20T13:00:52.150Z,12.85
2019-04-20T13:03:23.914Z,12.79
2019-04-20T13:05:56.107Z,13.03
2019-04-20T13:08:36.241Z,12.89
2019-04-20T13:11:10.945Z,13.01
2019-04-20T13:13:46.226Z,13.17
2019-04-20T13:16:28.497Z,12.71
2019-04-20T13:19:03.392Z,12.99
2019-04-20T13:21:35.190Z,12.93
2019-04-20T13:24:07.110Z,13.01
2019-04-20T13:26:38.808Z,13.26
2019-04-20T13:29:10.954Z,12.84
2019-04-20T13:31:43.860Z,12.86
2019-04-20T13:34:15.618Z,13.14
2019-04-20T13:36:48.420Z,12.82
2019-04-20T13:39:19.974Z,13.03
2019-04-20T13:42:02.407Z,12.97
2019-04-20T13:44:24.035Z,12.89
2019-04-20T13:46:56.728Z,13.01
2019-04-20T13:49:29.162Z,13.15
2019-04-20T13:52:02.299Z,13.07
2019-04-20T13:54:33.973Z,13.02
2019-04-20T13:57:10.176Z,13.10
2019-04-20T13:59:44.140Z,12.98
2019-04-20T14:02:30.916Z,13.22
2019-04-20T14:05:04.635Z,12.90
2019-04-20T14:07:37.844Z,13.10
2019-04-20T14:10:09.504Z,13.12
2019-04-20T14:12:52.384Z,13.14
2019-04-20T14:15:15.278Z,13.20
2019-04-20T14:17:47.013Z,13.11
2019-04-20T14:20:21.904Z,12.75
2019-04-20T14:22:54.660Z,12.90
2019-04-20T14:25:27.065Z,12.91
2019-04-20T14:27:58.663Z,13.15
2019-04-20T14:30:30.982Z,12.81
2019-04-20T14:33:03.066Z,12.91
2019-04-20T14:35:35.054Z,12.93
2019-04-20T14:38:07.897Z,12.95
2019-04-20T14:40:39.989Z,12.85
2019-04-20T14:43:13.052Z,12.92
2019-04-20T14:45:47.067Z,12.92
2019-04-20T14:48:18.758Z,12.95
2019-04-20T14:50:51.574Z,12.89
2019-04-20T14:53:25.408Z,13.05
2019-04-20T14:55:57.676Z,12.92
2019-04-20T14:58:49.202Z,13.02
2019-04-20T15:01:22.846Z,13.04
2019-04-20T15:03:59.823Z,12.98
2019-04-20T15:06:29.591Z,12.90
2019-04-20T15:09:01.385Z,13.05
2019-04-20T15:11:36.560Z,12.91
2019-04-20T15:14:09.018Z,12.85
2019-04-20T15:16:42.694Z,12.89
2019-04-20T15:19:17.818Z,12.88
2019-04-20T15:21:51.393Z,12.80
2019-04-20T15:24:23.776Z,12.81
2019-04-20T15:26:56.468Z,12.74
2019-04-20T15:29:30.424Z,12.66
2019-04-20T15:32:04.174Z,12.73
2019-04-20T15:34:36.979Z,12.75
2019-04-20T15:37:09.902Z,12.73
2019-04-20T15:39:43.211Z,12.70
2019-04-20T15:42:15.100Z,12.70
2019-04-20T15:44:47.255Z,12.73
2019-04-20T15:47:20.261Z,12.63
2019-04-20T15:49:51.928Z,12.55
2019-04-20T15:52:31.411Z,12.57
2019-04-20T15:55:01.875Z,12.55
2019-04-20T15:57:33.193Z,12.58
2019-04-20T16:00:06.682Z,12.52
2019-04-20T16:02:41.279Z,12.45
2019-04-20T16:05:28.254Z,12.39
2019-04-20T16:08:03.942Z,12.36
2019-04-20T16:10:35.001Z,12.23
2019-04-20T16:13:19.358Z,12.18
2019-04-20T16:15:40.220Z,12.23
2019-04-20T16:18:10.985Z,11.96
2019-04-20T16:20:52.951Z,11.86
2019-04-20T16:23:18.554Z,12.06
2019-04-20T16:26:02.096Z,11.87
2019-04-20T16:28:35.316Z,11.69
2019-04-20T16:31:10.066Z,11.50
2019-04-20T16:33:40.442Z,11.47
2019-04-20T16:36:12.371Z,11.32
2019-04-20T16:38:45.507Z,11.35
2019-04-20T16:41:18.343Z,11.25
2019-04-20T16:43:51.521Z,11.05
2019-04-20T16:46:25.605Z,10.95
2019-04-20T16:48:56.989Z,10.93
2019-04-20T16:51:29.210Z,10.92
2019-04-20T16:54:01.600Z,11.03
2019-04-20T16:56:33.438Z,10.80
2019-04-20T16:59:09.724Z,10.70
2019-04-20T17:01:40.612Z,10.71
2019-04-20T17:04:17.165Z,10.66
2019-04-20T17:07:05.961Z,10.70
2019-04-20T17:09:38.424Z,10.56
2019-04-20T17:12:10.448Z,10.43
2019-04-20T17:14:43.336Z,10.34
2019-04-20T17:17:15.779Z,10.29
2019-04-20T17:19:49.293Z,10.27
2019-04-20T17:22:21.479Z,10.19
2019-04-20T17:24:53.774Z,10.19
2019-04-20T17:27:44.739Z,10.16
2019-04-20T17:30:27.108Z,10.16
2019-04-20T17:33:00.564Z,10.01
2019-04-20T17:35:46.299Z,10.14
2019-04-20T17:38:08.842Z,10.29
2019-04-20T17:41:01.517Z,10.38
2019-04-20T17:43:24.905Z,10.38
2019-04-20T17:45:55.796Z,10.56
2019-04-20T17:48:33.287Z,10.66
2019-04-20T17:51:20.775Z,10.42
2019-04-20T17:53:55.750Z,10.42
2019-04-20T17:56:22.431Z,10.48
2019-04-20T17:58:54.558Z,10.26
2019-04-20T18:01:48.945Z,10.40
2019-04-20T18:04:46.548Z,10.27
2019-04-20T18:06:53.757Z,10.40
2019-04-20T18:09:38.656Z,10.09
2019-04-20T18:11:55.503Z,9.79
2019-04-20T18:14:38.655Z,9.59
2019-04-20T18:17:25.954Z,9.53
2019-04-20T18:19:47.173Z,9.45
2019-04-20T18:22:19.513Z,9.15
2019-04-20T18:25:16.352Z,8.96
2019-04-20T18:27:41.379Z,8.73
2019-04-20T18:30:15.534Z,8.72
2019-04-20T18:32:37.844Z,8.76
2019-04-20T18:35:18.212Z,8.82
2019-04-20T18:37:58.946Z,8.60
2019-04-20T18:40:32.516Z,8.41
2019-04-20T18:43:05.243Z,8.51
2019-04-20T18:45:46.532Z,8.34
2019-04-20T18:48:24.618Z,8.28
2019-04-20T18:50:42.427Z,8.34
2019-04-20T18:53:19.045Z,8.17
2019-04-20T18:55:55.144Z,8.18
2019-04-20T18:58:20.701Z,8.21
2019-04-20T19:00:54.198Z,8.13
2019-04-20T19:03:32.716Z,8.08
2019-04-20T19:06:00.162Z,7.82
2019-04-20T19:08:39.109Z,7.92
2019-04-20T19:11:09.749Z,7.91
2019-04-20T19:13:44.134Z,7.87
2019-04-20T19:16:27.516Z,7.83
2019-04-20T19:19:04.370Z,7.85
2019-04-20T19:21:26.988Z,7.81
2019-04-20T19:24:06.604Z,7.67
2019-04-20T19:26:32.211Z,7.61
2019-04-20T19:29:14.013Z,7.53
2019-04-20T19:31:50.839Z,7.44
2019-04-20T19:34:26.437Z,7.51
2019-04-20T19:36:59.113Z,7.75
2019-04-20T19:39:32.163Z,7.75
2019-04-20T19:42:06.778Z,7.66
2019-04-20T19:44:41.935Z,7.60
2019-04-20T19:47:19.453Z,7.32
2019-04-20T19:49:40.758Z,7.26
2019-04-20T19:52:31.001Z,7.21
2019-04-20T19:54:55.518Z,7.22
2019-04-20T19:57:31.624Z,7.15
2019-04-20T19:59:49.630Z,7.09
2019-04-20T20:02:18.704Z,7.10
2019-04-20T20:04:57.294Z,7.04
2019-04-20T20:07:32.205Z,6.91
2019-04-20T20:10:00.520Z,6.91
2019-04-20T20:12:31.575Z,6.88
2019-04-20T20:15:06.438Z,6.69
2019-04-20T20:18:00.339Z,6.60
2019-04-20T20:20:30.853Z,6.58
2019-04-20T20:22:49.770Z,6.62
2019-04-20T20:25:19.016Z,6.55
2019-04-20T20:27:57.434Z,6.53
2019-04-20T20:30:32.836Z,6.51
2019-04-20T20:33:13.936Z,6.35
2019-04-20T20:35:38.201Z,6.38
2019-04-20T20:38:16.649Z,6.42
2019-04-20T20:40:51.608Z,6.29
2019-04-20T20:43:20.656Z,6.20
2019-04-20T20:46:01.181Z,6.33
2019-04-20T20:48:33.396Z,6.14
2019-04-20T20:51:10.433Z,5.92
2019-04-20T20:53:41.394Z,6.09
2019-04-20T20:56:06.310Z,6.20
2019-04-20T20:58:43.846Z,6.07
2019-04-20T21:01:12.960Z,6.07
2019-04-20T21:03:45.195Z,6.07
2019-04-20T21:06:16.743Z,6.24
2019-04-20T21:08:51.463Z,6.64
2019-04-20T21:11:25.313Z,6.58
2019-04-20T21:13:54.575Z,6.66
2019-04-20T21:16:31.850Z,6.64
2019-04-20T21:19:17.182Z,6.72
2019-04-20T21:21:46.338Z,6.67
2019-04-20T21:24:13.049Z,6.78
2019-04-20T21:26:44.117Z,6.67
2019-04-20T21:29:19.169Z,6.63
2019-04-20T21:31:55.569Z,6.67
2019-04-20T21:34:22.321Z,6.64
2019-04-20T21:37:01.861Z,6.76
2019-04-20T21:39:39.175Z,6.71
2019-04-20T21:42:09.175Z,6.58
2019-04-20T21:44:40.600Z,6.24
2019-04-20T21:47:09.149Z,6.73
2019-04-20T21:49:51.534Z,6.54
2019-04-20T21:52:22.996Z,6.41
2019-04-20T21:54:47.908Z,6.46
2019-04-20T21:57:20.014Z,6.46
2019-04-20T21:59:54.265Z,6.38
2019-04-20T22:02:30.679Z,6.21
2019-04-20T22:04:58.781Z,5.91
2019-04-20T22:07:30.535Z,6.36
2019-04-20T22:10:02.527Z,6.53
2019-04-20T22:12:41.614Z,6.60
2019-04-20T22:15:17.886Z,6.53
2019-04-20T22:17:42.780Z,6.40
2019-04-20T22:20:23.241Z,6.30
2019-04-20T22:23:01.133Z,6.28
2019-04-20T22:25:40.723Z,6.25
2019-04-20T22:27:58.219Z,6.12
2019-04-20T22:30:28.177Z,6.11
2019-04-20T22:33:23.669Z,6.15
2019-04-20T22:35:58.860Z,6.17
2019-04-20T22:38:27.253Z,6.07
2019-04-20T22:41:06.616Z,6.01
2019-04-20T22:43:36.910Z,6.16
2019-04-20T22:46:05.909Z,6.05
2019-04-20T22:48:45.022Z,6.11
2019-04-20T22:51:26.389Z,6.03
2019-04-20T22:53:54.371Z,5.90
2019-04-20T22:56:34.161Z,5.78
2019-04-20T22:59:01.069Z,5.96
2019-04-20T23:01:35.036Z,5.78
2019-04-20T23:03:59.027Z,5.73
2019-04-20T23:06:35.656Z,5.78
2019-04-20T23:09:10.235Z,5.83
2019-04-20T23:11:40.083Z,5.83
2019-04-20T23:14:12.028Z,5.62
2019-04-20T23:16:49.270Z,5.59
2019-04-20T23:19:28.817Z,5.42
2019-04-20T23:21:57.230Z,5.46
2019-04-20T23:24:23.753Z,5.39
2019-04-20T23:26:55.441Z,5.32
2019-04-20T23:29:32.655Z,5.41
2019-04-20T23:32:04.907Z,5.42
2019-04-20T23:34:37.619Z,5.30
2019-04-20T23:37:16.098Z,5.29
2019-04-20T23:39:45.282Z,5.27
2019-04-20T23:42:23.983Z,5.28
2019-04-20T23:45:07.508Z,5.01
2019-04-20T23:47:46.463Z,5.20
2019-04-20T23:50:37.326Z,5.17
2019-04-20T23:53:10.399Z,5.28
2019-04-20T23:55:27.660Z,4.88
2019-04-20T23:58:06.436Z,4.84
